createdAt,value
2022-10-02T00:02:12.711Z,97040.33
2022-10-02T00:04:51.777Z,97041.52
2022-10-02T00:07:30.438Z,97042.50
2022-10-02T00:10:08.270Z,97043.71
2022-10-02T00:12:46.021Z,97045.74
2022-10-02T00:15:22.553Z,97048.30
2022-10-02T00:18:02.860Z,97047.80
2022-10-02T00:20:42.291Z,97050.42
2022-10-02T00:23:20.430Z,97045.95
2022-10-02T00:25:59.741Z,97050.15
2022-10-02T00:28:41.958Z,97053.84
2022-10-02T00:31:27.789Z,97057.08
2022-10-02T00:34:12.968Z,97056.23
2022-10-02T00:36:59.720Z,97061.04
2022-10-02T00:39:46.530Z,97061.63
2022-10-02T00:42:48.451Z,97064.54
2022-10-02T00:45:42.403Z,97065.98
2022-10-02T00:48:40.109Z,97066.95
2022-10-02T00:51:23.530Z,97070.55
2022-10-02T00:54:06.191Z,97065.81
2022-10-02T00:56:48.232Z,97071.75
2022-10-02T00:59:42.555Z,97071.39
2022-10-02T01:02:37.581Z,97072.04
2022-10-02T01:05:12.399Z,97074.01
2022-10-02T01:07:48.751Z,97074.21
2022-10-02T01:10:22.631Z,97076.40
2022-10-02T01:12:56.416Z,97078.55
2022-10-02T01:15:34.799Z,97082.75
2022-10-02T01:18:08.701Z,97082.93
2022-10-02T01:20:45.080Z,97086.35
2022-10-02T01:23:28.527Z,97092.28
2022-10-02T01:26:01.800Z,97091.91
2022-10-02T01:28:33.105Z,97094.80
2022-10-02T01:31:14.864Z,97097.11
2022-10-02T01:33:50.510Z,97095.91
2022-10-02T01:36:24.451Z,97096.33
2022-10-02T01:38:58.529Z,97100.34
2022-10-02T01:41:31.680Z,97099.27
2022-10-02T01:44:07.120Z,97104.90
2022-10-02T01:46:49.370Z,97101.10
2022-10-02T01:49:37.891Z,97106.09
2022-10-02T01:52:21.881Z,97105.11
2022-10-02T01:55:02.900Z,97104.55
2022-10-02T01:57:51.155Z,97107.85
2022-10-02T02:00:26.129Z,97106.83
2022-10-02T02:03:07.581Z,97108.95
2022-10-02T02:05:49.046Z,97109.59
2022-10-02T02:08:30.577Z,97116.05
2022-10-02T02:11:12.007Z,97123.39
2022-10-02T02:13:50.910Z,97123.33
2022-10-02T02:16:32.110Z,97125.34
2022-10-02T02:19:11.660Z,97126.38
2022-10-02T02:21:48.630Z,97127.42
2022-10-02T02:24:26.414Z,97129.43
2022-10-02T02:27:02.330Z,97128.20
2022-10-02T02:29:39.613Z,97130.56
2022-10-02T02:32:19.770Z,97130.77
2022-10-02T02:34:56.826Z,97136.77
2022-10-02T02:37:33.086Z,97133.67
2022-10-02T02:40:09.590Z,97137.65
2022-10-02T02:42:48.228Z,97137.66
2022-10-02T02:45:24.593Z,97138.19
2022-10-02T02:48:01.260Z,97141.48
2022-10-02T02:50:37.390Z,97141.34
2022-10-02T02:53:15.728Z,97143.41
2022-10-02T02:55:51.996Z,97140.41
2022-10-02T02:58:28.820Z,97138.13
2022-10-02T03:01:01.595Z,97140.54
2022-10-02T03:03:34.700Z,97139.96
2022-10-02T03:06:27.068Z,97137.87
2022-10-02T03:09:03.790Z,97143.73
2022-10-02T03:11:49.193Z,97143.40
2022-10-02T03:14:46.920Z,97144.95
2022-10-02T03:17:29.778Z,97142.93
2022-10-02T03:20:08.404Z,97141.64
2022-10-02T03:22:47.678Z,97139.35
2022-10-02T03:25:30.190Z,97142.24
2022-10-02T03:28:09.200Z,97147.68
2022-10-02T03:30:44.389Z,97151.52
2022-10-02T03:33:18.649Z,97148.95
2022-10-02T03:35:51.510Z,97149.14
2022-10-02T03:38:26.739Z,97148.74
2022-10-02T03:40:59.851Z,97150.41
2022-10-02T03:43:33.900Z,97158.85
2022-10-02T03:46:06.584Z,97156.73
2022-10-02T03:48:39.478Z,97160.23
2022-10-02T03:51:12.970Z,97162.98
2022-10-02T03:53:44.311Z,97163.81
2022-10-02T03:56:24.488Z,97166.19
2022-10-02T03:59:01.610Z,97171.71
2022-10-02T04:01:39.384Z,97171.90
2022-10-02T04:04:18.862Z,97174.61
2022-10-02T04:06:59.430Z,97175.79
2022-10-02T04:09:38.110Z,97183.30
2022-10-02T04:12:18.902Z,97186.02
2022-10-02T04:14:57.460Z,97191.04
2022-10-02T04:17:45.870Z,97197.56
2022-10-02T04:20:23.591Z,97203.23
2022-10-02T04:23:02.858Z,97205.08
2022-10-02T04:25:40.761Z,97206.89
2022-10-02T04:28:16.446Z,97210.84
2022-10-02T04:30:49.070Z,97212.89
2022-10-02T04:33:24.120Z,97218.06
2022-10-02T04:36:09.670Z,97222.17
2022-10-02T04:38:59.046Z,97222.49
2022-10-02T04:41:49.611Z,97228.09
2022-10-02T04:44:38.732Z,97226.73
2022-10-02T04:47:30.581Z,97236.39
2022-10-02T04:50:23.842Z,97237.86
2022-10-02T04:53:12.768Z,97244.21
2022-10-02T04:56:01.610Z,97247.14
2022-10-02T04:58:57.742Z,97249.52
2022-10-02T05:01:43.163Z,97252.19
2022-10-02T05:04:44.920Z,97257.95
2022-10-02T05:07:35.983Z,97259.17
2022-10-02T05:10:29.388Z,97262.91
2022-10-02T05:13:14.963Z,97264.73
2022-10-02T05:16:02.090Z,97267.81
2022-10-02T05:18:54.800Z,97274.19
2022-10-02T05:21:46.019Z,97273.09
2022-10-02T05:24:35.551Z,97277.53
2022-10-02T05:27:21.891Z,97280.76
2022-10-02T05:30:10.030Z,97286.63
2022-10-02T05:33:07.093Z,97284.27
2022-10-02T05:36:02.740Z,97293.17
2022-10-02T05:38:56.061Z,97296.80
2022-10-02T05:41:34.116Z,97296.56
2022-10-02T05:44:13.961Z,97305.29
2022-10-02T05:46:58.457Z,97304.36
2022-10-02T05:49:36.440Z,97308.13
2022-10-02T05:52:18.240Z,97314.05
2022-10-02T05:54:58.208Z,97313.69
2022-10-02T05:57:38.871Z,97316.86
2022-10-02T06:00:25.710Z,97321.02
2022-10-02T06:03:04.020Z,97324.70
2022-10-02T06:05:46.132Z,97327.40
2022-10-02T06:08:23.272Z,97327.97
2022-10-02T06:11:00.604Z,97328.88
2022-10-02T06:13:42.410Z,97331.45
2022-10-02T06:16:21.560Z,97329.41
2022-10-02T06:19:03.771Z,97335.46
2022-10-02T06:21:42.135Z,97337.27
2022-10-02T06:24:22.189Z,97341.91
2022-10-02T06:27:01.444Z,97341.71
2022-10-02T06:29:42.032Z,97349.37
2022-10-02T06:32:25.020Z,97351.20
2022-10-02T06:35:00.930Z,97351.69
2022-10-02T06:37:52.649Z,97354.39
2022-10-02T06:40:44.335Z,97359.27
2022-10-02T06:43:29.673Z,97363.44
2022-10-02T06:46:16.715Z,97365.42
2022-10-02T06:48:59.017Z,97367.23
2022-10-02T06:51:41.565Z,97365.99
2022-10-02T06:54:31.350Z,97374.27
2022-10-02T06:57:16.700Z,97377.08
2022-10-02T07:00:05.816Z,97377.85
2022-10-02T07:03:07.091Z,97383.02
2022-10-02T07:05:54.930Z,97383.33
2022-10-02T07:08:41.943Z,97387.80
2022-10-02T07:11:24.770Z,97391.70
2022-10-02T07:14:10.370Z,97395.84
2022-10-02T07:17:00.630Z,97399.40
2022-10-02T07:19:49.211Z,97401.13
2022-10-02T07:22:50.841Z,97405.91
2022-10-02T07:25:51.510Z,97406.93
2022-10-02T07:28:34.787Z,97406.81
2022-10-02T07:31:18.760Z,97407.22
2022-10-02T07:34:02.770Z,97410.60
2022-10-02T07:36:40.661Z,97413.42
2022-10-02T07:39:25.850Z,97413.36
2022-10-02T07:42:19.177Z,97413.48
2022-10-02T07:45:21.768Z,97416.34
2022-10-02T07:48:19.110Z,97420.27
2022-10-02T07:51:32.990Z,97419.16
2022-10-02T07:54:18.950Z,97422.47
2022-10-02T07:56:54.557Z,97416.81
2022-10-02T07:59:27.580Z,97416.02
2022-10-02T08:02:01.191Z,97419.92
2022-10-02T08:04:37.609Z,97425.69
2022-10-02T08:07:10.770Z,97417.58
2022-10-02T08:09:48.921Z,97418.73
2022-10-02T08:12:29.500Z,97419.21
2022-10-02T08:15:04.210Z,97411.62
2022-10-02T08:17:44.922Z,97403.45
2022-10-02T08:20:29.704Z,97410.68
2022-10-02T08:23:10.131Z,97410.83
2022-10-02T08:25:50.130Z,97406.72
2022-10-02T08:28:28.362Z,97400.30
2022-10-02T08:31:01.520Z,97400.11
2022-10-02T08:33:36.798Z,97401.23
2022-10-02T08:36:29.872Z,97398.75
2022-10-02T08:39:12.950Z,97402.67
2022-10-02T08:42:22.041Z,97400.35
2022-10-02T08:45:30.039Z,97408.61
2022-10-02T08:48:41.630Z,97407.25
2022-10-02T08:51:43.929Z,97402.44
2022-10-02T08:54:50.913Z,97404.64
2022-10-02T08:57:54.152Z,97406.44
2022-10-02T09:00:34.150Z,97402.34
2022-10-02T09:03:46.080Z,97400.50
2022-10-02T09:06:52.601Z,97396.02
2022-10-02T09:10:13.632Z,97389.90
2022-10-02T09:13:15.901Z,97388.55
2022-10-02T09:15:58.118Z,97389.05
2022-10-02T09:18:52.271Z,97387.29
2022-10-02T09:21:43.440Z,97391.05
2022-10-02T09:24:41.473Z,97397.98
2022-10-02T09:27:37.634Z,97397.69
2022-10-02T09:30:38.747Z,97396.37
2022-10-02T09:33:48.291Z,97398.77
2022-10-02T09:36:49.792Z,97394.08
2022-10-02T09:39:53.478Z,97394.26
2022-10-02T09:42:58.782Z,97388.72
2022-10-02T09:45:57.804Z,97391.48
2022-10-02T09:48:56.459Z,97383.45
2022-10-02T09:51:55.101Z,97381.76
2022-10-02T09:55:02.980Z,97375.69
2022-10-02T09:58:10.818Z,97372.96
2022-10-02T10:01:12.473Z,97374.21
2022-10-02T10:04:13.152Z,97373.48
2022-10-02T10:07:18.972Z,97371.84
2022-10-02T10:10:11.663Z,97373.19
2022-10-02T10:13:20.952Z,97370.17
2022-10-02T10:16:44.339Z,97374.42
2022-10-02T10:19:45.838Z,97366.91
2022-10-02T10:22:58.460Z,97365.58
2022-10-02T10:25:55.450Z,97361.42
2022-10-02T10:28:55.670Z,97354.16
2022-10-02T10:35:31.060Z,97350.33
2022-10-02T10:38:52.511Z,97352.23
2022-10-02T10:41:50.501Z,97348.83
2022-10-02T10:44:57.949Z,97351.95
2022-10-02T10:48:00.920Z,97350.98
2022-10-02T10:51:14.530Z,97351.54
2022-10-02T10:54:12.733Z,97349.85
2022-10-02T10:56:47.791Z,97351.27
2022-10-02T10:59:59.750Z,97354.66
2022-10-02T11:02:59.334Z,97353.98
2022-10-02T11:06:13.170Z,97358.16
2022-10-02T11:09:15.631Z,97353.52
2022-10-02T11:12:08.847Z,97354.46
2022-10-02T11:14:56.040Z,97348.77
2022-10-02T11:17:49.311Z,97349.66
2022-10-02T11:20:35.970Z,97351.80
2022-10-02T11:23:25.550Z,97351.28
2022-10-02T11:26:18.711Z,97345.95
2022-10-02T11:29:11.741Z,97342.99
2022-10-02T11:32:10.409Z,97335.55
2022-10-02T11:35:07.107Z,97334.65
2022-10-02T11:38:11.720Z,97333.13
2022-10-02T11:41:02.512Z,97330.11
2022-10-02T11:43:51.850Z,97329.84
2022-10-02T11:46:36.954Z,97329.21
2022-10-02T11:49:29.810Z,97339.30
2022-10-02T11:52:20.491Z,97341.90
2022-10-02T11:55:11.861Z,97344.13
2022-10-02T11:57:58.831Z,97345.34
2022-10-02T12:00:59.211Z,97338.77
2022-10-02T12:03:38.740Z,97335.52
2022-10-02T12:06:30.260Z,97326.14
2022-10-02T12:09:10.921Z,97318.45
2022-10-02T12:11:50.373Z,97316.48
2022-10-02T12:14:43.060Z,97315.99
2022-10-02T12:17:53.900Z,97320.21
2022-10-02T12:20:59.390Z,97320.26
2022-10-02T12:24:05.312Z,97316.56
2022-10-02T12:27:08.661Z,97314.15
2022-10-02T12:30:01.130Z,97308.70
2022-10-02T12:32:48.742Z,97300.69
2022-10-02T12:35:43.290Z,97297.88
2022-10-02T12:38:27.090Z,97294.13
2022-10-02T12:41:08.922Z,97291.41
2022-10-02T12:44:07.498Z,97292.98
2022-10-02T12:47:07.070Z,97290.42
2022-10-02T12:49:51.869Z,97292.29
2022-10-02T12:52:54.214Z,97287.23
2022-10-02T12:55:58.231Z,97283.46
2022-10-02T12:58:44.571Z,97285.64
2022-10-02T13:01:57.286Z,97300.23
2022-10-02T13:05:14.983Z,97284.76
2022-10-02T13:08:24.094Z,97279.34
2022-10-02T13:11:07.268Z,97281.08
2022-10-02T13:13:57.900Z,97277.84
2022-10-02T13:16:53.272Z,97277.30
2022-10-02T13:19:37.810Z,97270.42
2022-10-02T13:22:18.938Z,97265.09
2022-10-02T13:25:04.600Z,97259.08
2022-10-02T13:27:49.965Z,97256.05
2022-10-02T13:30:25.691Z,97247.80
2022-10-02T13:33:13.952Z,97243.10
2022-10-02T13:36:10.600Z,97247.69
2022-10-02T13:39:09.246Z,97241.62
2022-10-02T13:41:55.122Z,97246.06
2022-10-02T13:44:41.149Z,97247.08
2022-10-02T13:47:34.474Z,97244.42
2022-10-02T13:50:21.689Z,97240.10
2022-10-02T13:53:12.190Z,97243.36
2022-10-02T13:55:48.360Z,97244.73
2022-10-02T13:58:46.479Z,97242.50
2022-10-02T14:01:32.650Z,97241.06
2022-10-02T14:04:30.497Z,97246.83
2022-10-02T14:07:15.174Z,97244.02
2022-10-02T14:10:05.540Z,97243.69
2022-10-02T14:12:52.753Z,97241.06
2022-10-02T14:15:36.310Z,97239.80
2022-10-02T14:18:43.961Z,97242.70
2022-10-02T14:21:26.915Z,97245.07
2022-10-02T14:24:19.610Z,97248.03
2022-10-02T14:27:06.780Z,97256.92
2022-10-02T14:29:50.422Z,97258.27
2022-10-02T14:32:39.701Z,97257.91
2022-10-02T14:35:32.495Z,97242.14
2022-10-02T14:38:43.950Z,97243.77
2022-10-02T14:41:39.486Z,97243.02
2022-10-02T14:44:57.177Z,97242.87
2022-10-02T14:47:50.399Z,97236.14
2022-10-02T14:50:40.786Z,97238.40
2022-10-02T14:53:32.402Z,97239.46
2022-10-02T14:56:50.075Z,97239.22
2022-10-02T14:59:44.858Z,97236.10
2022-10-02T15:02:47.515Z,97233.23
2022-10-02T15:05:44.888Z,97225.55
2022-10-02T15:08:25.973Z,97222.28
2022-10-02T15:10:59.771Z,97226.47
2022-10-02T15:13:45.851Z,97223.47
2022-10-02T15:16:41.140Z,97221.84
2022-10-02T15:19:22.554Z,97227.46
2022-10-02T15:22:01.841Z,97234.77
2022-10-02T15:24:42.121Z,97237.95
2022-10-02T15:27:25.559Z,97235.63
2022-10-02T15:30:15.885Z,97238.02
2022-10-02T15:33:01.285Z,97239.13
2022-10-02T15:35:47.512Z,97245.46
2022-10-02T15:38:45.859Z,97240.61
2022-10-02T15:41:41.286Z,97241.30
2022-10-02T15:44:41.398Z,97242.91
2022-10-02T15:47:32.503Z,97239.65
2022-10-02T15:50:20.150Z,97245.62
2022-10-02T15:53:04.088Z,97250.46
2022-10-02T15:55:45.607Z,97248.90
2022-10-02T15:58:38.910Z,97245.14
2022-10-02T16:01:31.179Z,97245.56
2022-10-02T16:04:15.270Z,97242.65
2022-10-02T16:06:55.618Z,97253.69
2022-10-02T16:10:36.988Z,97275.96
2022-10-02T16:14:30.653Z,97278.86
2022-10-02T16:17:59.709Z,97270.21
2022-10-02T16:21:08.491Z,97268.20
2022-10-02T16:24:06.140Z,97269.70
2022-10-02T16:27:20.310Z,97272.41
2022-10-02T16:30:14.260Z,97271.88
2022-10-02T16:33:11.641Z,97268.76
2022-10-02T16:36:14.930Z,97257.12
2022-10-02T16:39:03.434Z,97254.39
2022-10-02T16:41:58.778Z,97252.25
2022-10-02T16:44:51.031Z,97251.95
2022-10-02T16:47:35.240Z,97249.85
2022-10-02T16:50:21.082Z,97246.71
2022-10-02T16:53:00.711Z,97244.31
2022-10-02T16:55:39.311Z,97246.27
2022-10-02T16:58:26.479Z,97242.92
2022-10-02T17:01:02.585Z,97250.23
2022-10-02T17:03:43.100Z,97251.58
2022-10-02T17:06:26.982Z,97250.79
2022-10-02T17:09:07.371Z,97251.54
2022-10-02T17:11:50.121Z,97250.74
2022-10-02T17:14:33.569Z,97248.20
2022-10-02T17:17:16.990Z,97248.86
2022-10-02T17:19:55.748Z,97245.23
2022-10-02T17:22:34.842Z,97246.44
2022-10-02T17:25:18.640Z,97250.20
2022-10-02T17:27:58.564Z,97242.17
2022-10-02T17:30:46.181Z,97238.52
2022-10-02T17:33:22.568Z,97233.66
2022-10-02T17:36:03.370Z,97226.79
2022-10-02T17:39:06.316Z,97225.73
2022-10-02T17:41:49.801Z,97219.81
2022-10-02T17:44:45.102Z,97217.61
2022-10-02T17:47:36.801Z,97218.27
2022-10-02T17:50:26.952Z,97232.85
2022-10-02T17:53:32.770Z,97227.48
2022-10-02T17:56:48.881Z,97231.55
2022-10-02T17:59:49.452Z,97233.53
2022-10-02T18:02:44.630Z,97231.85
2022-10-02T18:05:26.816Z,97230.76
2022-10-02T18:08:18.709Z,97228.77
2022-10-02T18:11:08.131Z,97230.18
2022-10-02T18:14:04.740Z,97232.39
2022-10-02T18:16:48.549Z,97228.96
2022-10-02T18:19:38.637Z,97225.80
2022-10-02T18:22:45.129Z,97222.77
2022-10-02T18:25:52.026Z,97218.10
2022-10-02T18:28:57.311Z,97212.70
2022-10-02T18:31:56.801Z,97211.28
2022-10-02T18:34:54.260Z,97209.61
2022-10-02T18:37:48.580Z,97199.40
2022-10-02T18:40:24.431Z,97212.29
2022-10-02T18:43:22.390Z,97215.11
2022-10-02T18:46:07.497Z,97235.48
2022-10-02T18:49:10.788Z,97253.55
2022-10-02T18:52:17.280Z,97258.77
2022-10-02T18:55:07.481Z,97251.30
2022-10-02T18:57:53.520Z,97256.13
2022-10-02T19:00:32.298Z,97262.37
2022-10-02T19:03:30.182Z,97265.78
2022-10-02T19:06:12.440Z,97265.15
2022-10-02T19:09:20.632Z,97259.36
2022-10-02T19:12:00.670Z,97253.75
2022-10-02T19:14:41.940Z,97251.48
2022-10-02T19:17:24.478Z,97251.45
2022-10-02T19:19:59.673Z,97245.75
2022-10-02T19:22:35.752Z,97247.61
2022-10-02T19:25:21.440Z,97239.03
2022-10-02T19:28:00.692Z,97231.79
2022-10-02T19:30:36.991Z,97225.55
2022-10-02T19:33:14.474Z,97228.17
2022-10-02T19:35:48.030Z,97231.04
2022-10-02T19:38:31.000Z,97232.77
2022-10-02T19:41:10.301Z,97226.44
2022-10-02T19:43:54.702Z,97226.27
2022-10-02T19:46:37.540Z,97224.19
2022-10-02T19:49:19.915Z,97223.66
2022-10-02T19:51:55.261Z,97223.16
2022-10-02T19:54:33.061Z,97226.21
2022-10-02T19:57:16.471Z,97222.20
2022-10-02T19:59:53.731Z,97223.91
2022-10-02T20:02:31.526Z,97223.73
2022-10-02T20:05:09.078Z,97222.60
2022-10-02T20:07:46.023Z,97229.66
2022-10-02T20:10:24.101Z,97229.64
2022-10-02T20:13:02.556Z,97228.13
2022-10-02T20:16:03.990Z,97228.52
2022-10-02T20:18:39.011Z,97231.52
2022-10-02T20:21:19.170Z,97230.55
2022-10-02T20:23:58.823Z,97229.73
2022-10-02T20:26:34.860Z,97233.19
2022-10-02T20:29:13.451Z,97239.44
2022-10-02T20:31:52.349Z,97242.86
2022-10-02T20:34:31.215Z,97243.52
2022-10-02T20:37:08.119Z,97248.54
2022-10-02T20:39:46.760Z,97249.19
2022-10-02T20:42:25.960Z,97250.56
2022-10-02T20:44:59.190Z,97248.75
2022-10-02T20:48:05.861Z,97251.66
2022-10-02T20:50:59.730Z,97252.35
2022-10-02T20:53:59.050Z,97249.70
2022-10-02T20:56:59.761Z,97253.54
2022-10-02T21:00:12.373Z,97254.17
2022-10-02T21:03:06.184Z,97249.72
2022-10-02T21:06:10.030Z,97251.05
2022-10-02T21:09:32.680Z,97255.89
2022-10-02T21:12:31.620Z,97255.52
2022-10-02T21:15:48.149Z,97258.21
2022-10-02T21:18:43.000Z,97255.09
2022-10-02T21:21:41.511Z,97255.37
2022-10-02T21:24:49.990Z,97261.52
2022-10-02T21:27:48.129Z,97260.45
2022-10-02T21:30:22.073Z,97262.28
2022-10-02T21:33:12.128Z,97259.52
2022-10-02T21:36:03.939Z,97262.85
2022-10-02T21:39:28.950Z,97266.54
2022-10-02T21:42:35.568Z,97265.34
2022-10-02T21:45:54.008Z,97269.60
2022-10-02T21:49:11.105Z,97262.80
2022-10-02T21:52:11.330Z,97263.11
2022-10-02T21:55:41.400Z,97264.70
2022-10-02T21:58:49.494Z,97264.09
2022-10-02T22:02:07.263Z,97262.63
2022-10-02T22:05:06.469Z,97264.49
2022-10-02T22:07:50.045Z,97260.55
2022-10-02T22:10:32.411Z,97257.73
2022-10-02T22:13:18.608Z,97263.25
2022-10-02T22:16:04.601Z,97262.23
2022-10-02T22:18:44.691Z,97262.77
2022-10-02T22:21:31.102Z,97262.91
2022-10-02T22:24:30.009Z,97260.30
2022-10-02T22:27:25.681Z,97260.44
2022-10-02T22:29:59.588Z,97260.64
2022-10-02T22:33:13.638Z,97262.70
2022-10-02T22:36:10.931Z,97266.15
2022-10-02T22:38:48.470Z,97267.97
2022-10-02T22:41:29.157Z,97262.09
2022-10-02T22:44:08.359Z,97269.20
2022-10-02T22:46:49.165Z,97271.64
2022-10-02T22:49:29.790Z,97271.21
2022-10-02T22:52:09.528Z,97268.23
2022-10-02T22:54:50.340Z,97270.59
2022-10-02T22:57:30.394Z,97272.90
2022-10-02T23:00:12.570Z,97275.23
2022-10-02T23:02:55.296Z,97276.73
2022-10-02T23:05:35.150Z,97273.64
2022-10-02T23:08:21.225Z,97276.27
2022-10-02T23:10:55.910Z,97277.00
2022-10-02T23:13:36.030Z,97277.82
2022-10-02T23:16:15.743Z,97279.45
2022-10-02T23:18:54.710Z,97284.95
2022-10-02T23:21:40.870Z,97288.48
2022-10-02T23:24:28.850Z,97290.80
2022-10-02T23:27:12.320Z,97293.36
2022-10-02T23:29:54.180Z,97291.44
2022-10-02T23:32:34.398Z,97290.99
2022-10-02T23:35:15.210Z,97295.45
2022-10-02T23:37:55.682Z,97293.52
2022-10-02T23:40:50.602Z,97289.98
2022-10-02T23:43:31.740Z,97301.19
2022-10-02T23:46:10.226Z,97299.33
2022-10-02T23:48:43.810Z,97305.54
2022-10-02T23:51:18.280Z,97302.14
2022-10-02T23:54:21.325Z,97305.23
2022-10-02T23:57:12.029Z,97305.98
